Denver, Colorado
Current Conditions -  °F | °C
As of 9:58 PM on Monday 22 Dec 2014 (Local Time) from KBKF Reporting Station
Scattered Clouds Scattered Clouds  
Wind Chill: 15°   Ceiling: Unl
Heat Index: 23°   Visibility: 10mi
Dew Point: 16°   Wind: 7mph
Humidity: 76%   Direction: 360°N
Pressure: 29.85"   Gusts: NA
Location:  39.74°N, 104.99°W
Report Text: KBKF 230458Z 36006KT 10SM FEW070 SCT120 M05/M09 A2985 RMK AO2A SLP126 T10501087
Loading
Personal Weather Stations






























Interactive Weather Map New forecast layout! Learn more

10-Day Weather Forecast

Advertisements
Track Severe Weather on mobile